Time;durP1;ratioP1;P1;durP2;ratioP2;P2;SDS_P1;SDS_P2;PMS_P1;PMS_P2;Temp;Humidity;BMP_temperature;BMP_pressure;BME280_temperature;BME280_humidity;BME280_pressure;Samples;Min_cycle;Max_cycle;Signal;HPM_P1;HPM_P2
2024/02/02 00:00:51;;;;;;;27.10;6.50;;;;;;;3.85;71.60;101461.98;104949;1254;137671;-59
2024/02/02 00:03:39;;;;;;;34.80;6.30;;;;;;;3.89;71.66;101463.67;104821;1254;61375;-60
2024/02/02 00:06:06;;;;;;;37.60;6.80;;;;;;;3.91;71.68;101463.89;104752;1254;139204;-60
2024/02/02 00:08:36;;;;;;;28.50;6.30;;;;;;;3.90;71.63;101471.00;104856;1260;67013;-59
2024/02/02 00:11:03;;;;;;;20.10;5.20;;;;;;;3.91;71.58;101470.70;104860;1257;72391;-60
2024/02/02 00:13:30;;;;;;;25.20;6.40;;;;;;;3.89;71.51;101471.60;104774;1259;139971;-61
2024/02/02 00:15:56;;;;;;;41.30;6.90;;;;;;;3.84;71.55;101469.56;104871;1257;61238;-60
2024/02/02 00:18:23;;;;;;;36.30;7.00;;;;;;;3.79;71.59;101473.45;104979;1255;137794;-60
2024/02/02 00:20:52;;;;;;;38.20;6.60;;;;;;;3.77;71.60;101472.96;105039;1255;67151;-60
2024/02/02 00:23:19;;;;;;;38.80;6.70;;;;;;;3.76;71.71;101486.27;109122;1254;73320;-61
2024/02/02 00:25:46;;;;;;;36.20;6.80;;;;;;;3.77;71.79;101483.19;108984;1254;58947;-61
2024/02/02 00:28:12;;;;;;;29.40;6.20;;;;;;;3.78;71.86;101487.95;109191;1254;60372;-61
2024/02/02 00:30:40;;;;;;;35.70;6.30;;;;;;;3.76;71.71;101494.40;109093;1254;139105;-61
2024/02/02 00:33:07;;;;;;;31.70;6.20;;;;;;;3.68;71.64;101500.83;104957;1258;66321;-59
2024/02/02 00:35:33;;;;;;;34.10;6.80;;;;;;;3.61;71.59;101509.95;104716;1262;138528;-61
2024/02/02 00:38:00;;;;;;;38.50;7.00;;;;;;;3.56;71.74;101504.40;104861;1254;61417;-61
2024/02/02 00:40:29;;;;;;;40.40;7.50;;;;;;;3.53;71.85;101499.84;105066;1254;61293;-61
2024/02/02 00:42:55;;;;;;;34.50;7.00;;;;;;;3.50;71.92;101503.30;108842;1256;138478;-60
2024/02/02 00:45:23;;;;;;;31.80;6.40;;;;;;;3.46;71.85;101505.82;109254;1254;65349;-61
2024/02/02 00:47:50;;;;;;;30.50;5.90;;;;;;;3.41;72.00;101508.98;108872;1254;138605;-61
2024/02/02 00:50:17;;;;;;;42.50;6.80;;;;;;;3.39;72.29;101515.98;106096;1260;61325;-60
2024/02/02 00:52:44;;;;;;;29.70;6.30;;;;;;;3.39;72.24;101514.19;105063;1255;61350;-61
2024/02/02 00:55:11;;;;;;;28.70;6.50;;;;;;;3.35;72.20;101510.30;104862;1255;139334;-60
2024/02/02 00:57:37;;;;;;;35.30;6.30;;;;;;;3.32;72.46;101514.46;105059;1259;66611;-61
2024/02/02 01:00:05;;;;;;;39.10;7.40;;;;;;;3.28;72.48;101514.04;105024;1254;138644;-60
2024/02/02 01:02:33;;;;;;;34.40;5.90;;;;;;;3.24;72.44;101517.60;105004;1257;61286;-61
2024/02/02 01:04:59;;;;;;;28.30;6.60;;;;;;;3.23;72.61;101523.23;108953;1256;61556;-59
2024/02/02 01:07:26;;;;;;;43.90;6.20;;;;;;;3.25;72.73;101526.84;109079;1254;137883;-61
2024/02/02 01:09:53;;;;;;;36.00;6.30;;;;;;;3.28;72.69;101527.87;108991;1254;66153;-60
2024/02/02 01:12:20;;;;;;;33.10;6.80;;;;;;;3.29;72.80;101529.86;108886;1254;138223;-60
2024/02/02 01:14:47;;;;;;;30.70;6.00;;;;;;;3.27;72.76;101533.75;107943;1254;61365;-60
2024/02/02 01:17:14;;;;;;;36.50;6.00;;;;;;;3.27;72.82;101536.87;104913;1256;61248;-61
2024/02/02 01:19:40;;;;;;;28.80;6.00;;;;;;;3.28;72.79;101539.02;108726;1258;138482;-61
2024/02/02 01:22:07;;;;;;;18.80;4.60;;;;;;;3.31;72.80;101540.73;109226;1254;66272;-60
2024/02/02 01:24:34;;;;;;;31.90;6.80;;;;;;;3.34;72.74;101541.64;108911;1254;138290;-67
2024/02/02 01:27:01;;;;;;;33.20;5.50;;;;;;;3.38;72.72;101544.36;109179;1254;59454;-68
2024/02/02 01:29:29;;;;;;;35.40;6.40;;;;;;;3.41;72.67;101548.00;108910;1256;138409;-66
2024/02/02 01:31:56;;;;;;;22.90;5.10;;;;;;;3.40;72.49;101545.55;109152;1254;72746;-67
2024/02/02 01:34:22;;;;;;;37.70;6.40;;;;;;;3.42;72.65;101544.23;109015;1254;65766;-67
2024/02/02 01:36:49;;;;;;;38.40;6.40;;;;;;;3.40;72.48;101547.40;108920;1255;138223;-67
2024/02/02 01:39:16;;;;;;;38.80;7.10;;;;;;;3.33;72.44;101545.73;109218;1254;59295;-67
2024/02/02 01:41:44;;;;;;;37.10;6.50;;;;;;;3.27;72.32;101545.52;108865;1254;138673;-67
2024/02/02 01:44:11;;;;;;;28.90;5.50;;;;;;;3.22;72.43;101542.56;108788;1254;73872;-68
2024/02/02 01:46:38;;;;;;;27.80;5.80;;;;;;;3.19;72.54;101539.74;105175;1257;65643;-67
2024/02/02 01:49:05;;;;;;;36.30;6.60;;;;;;;3.15;72.46;101541.93;105000;1254;138455;-68
2024/02/02 01:51:31;;;;;;;30.20;5.80;;;;;;;3.13;72.81;101543.52;105153;1259;61368;-67
2024/02/02 01:53:58;;;;;;;28.40;6.40;;;;;;;3.10;72.83;101553.43;108770;1255;139563;-67
2024/02/02 01:56:25;;;;;;;34.10;6.30;;;;;;;3.14;73.00;101551.55;108956;1255;74702;-68
2024/02/02 01:58:52;;;;;;;28.60;5.80;;;;;;;3.17;73.03;101552.98;108921;1256;65172;-67
2024/02/02 02:01:18;;;;;;;35.00;6.90;;;;;;;3.18;72.95;101562.60;106513;1256;137748;-68
2024/02/02 02:03:45;;;;;;;36.50;6.50;;;;;;;3.18;72.95;101564.33;104818;1259;61356;-67
2024/02/02 02:06:12;;;;;;;39.00;7.40;;;;;;;3.21;73.04;101570.46;105015;1254;138406;-67
2024/02/02 02:08:39;;;;;;;30.40;6.10;;;;;;;3.30;73.33;101571.73;104832;1260;75173;-67
2024/02/02 02:11:07;;;;;;;30.70;5.60;;;;;;;3.39;73.23;101574.95;105010;1254;67302;-67
2024/02/02 02:13:34;;;;;;;25.90;5.60;;;;;;;3.44;73.11;101573.86;108844;1255;138718;-67
2024/02/02 02:16:01;;;;;;;27.40;6.40;;;;;;;3.47;73.05;101570.59;108875;1256;59345;-67
2024/02/02 02:18:27;;;;;;;33.50;6.00;;;;;;;3.53;73.04;101571.17;108792;1255;139586;-67
2024/02/02 02:20:55;;;;;;;39.50;7.10;;;;;;;3.61;73.07;101565.13;109062;1256;73884;-68
2024/02/02 02:23:22;;;;;;;29.10;5.70;;;;;;;3.69;72.96;101567.21;108838;1255;138631;-66
2024/02/02 02:25:48;;;;;;;30.70;6.60;;;;;;;3.77;72.81;101570.85;109216;1254;71385;-67
2024/02/02 02:28:15;;;;;;;35.00;6.30;;;;;;;3.84;72.70;101568.00;109231;1254;65011;-67
2024/02/02 02:30:45;;;;;;;38.20;8.30;;;;;;;3.91;72.72;101566.52;109128;1254;138085;-67
2024/02/02 02:33:12;;;;;;;41.00;6.80;;;;;;;3.97;72.51;101570.05;109225;1254;76253;-67
2024/02/02 02:35:38;;;;;;;32.40;6.10;;;;;;;3.98;72.37;101567.71;109130;1254;137851;-66
2024/02/02 02:38:05;;;;;;;34.10;5.80;;;;;;;3.98;72.27;101567.89;108994;1257;73078;-66
2024/02/02 02:40:32;;;;;;;35.20;6.30;;;;;;;3.99;72.27;101569.31;109185;1254;59149;-60
2024/02/02 02:42:59;;;;;;;31.60;5.90;;;;;;;4.00;72.25;101566.63;108953;1255;138767;-59
2024/02/02 02:45:26;;;;;;;26.70;5.30;;;;;;;4.02;72.13;101571.08;109095;1256;74695;-60
2024/02/02 02:47:53;;;;;;;34.90;6.00;;;;;;;4.03;72.15;101572.91;108854;1254;139238;-60
2024/02/02 02:50:19;;;;;;;31.20;5.10;;;;;;;4.05;72.04;101575.45;107947;1258;73773;-68
2024/02/02 02:52:46;;;;;;;30.70;6.50;;;;;;;4.06;71.99;101579.35;104811;1257;61340;-67
2024/02/02 02:55:13;;;;;;;37.80;9.80;;;;;;;4.07;71.98;101581.35;105039;1258;138778;-68
2024/02/02 02:57:40;;;;;;;31.20;6.50;;;;;;;4.09;71.90;101587.02;105130;1256;74756;-61
2024/02/02 03:00:09;;;;;;;32.90;6.30;;;;;;;4.13;71.92;101592.29;104928;1259;137853;-68
2024/02/02 03:02:36;;;;;;;25.80;5.10;;;;;;;4.15;71.98;101595.36;105290;1259;71848;-68
2024/02/02 03:05:03;;;;;;;36.20;6.30;;;;;;;4.16;71.84;101599.58;109194;1254;59449;-68
2024/02/02 03:07:30;;;;;;;26.00;5.60;;;;;;;4.16;71.86;101606.86;109054;1254;137738;-60
2024/02/02 03:09:57;;;;;;;32.20;5.80;;;;;;;4.16;71.74;101604.98;109253;1254;75840;-60
2024/02/02 03:12:24;;;;;;;31.20;6.20;;;;;;;4.18;71.76;101604.23;105758;1261;138517;-60
2024/02/02 03:14:50;;;;;;;38.00;6.00;;;;;;;4.20;71.69;101603.34;104754;1261;73286;-59
2024/02/02 03:17:17;;;;;;;36.30;6.60;;;;;;;4.19;71.50;101605.73;105151;1255;61340;-60
2024/02/02 03:19:44;;;;;;;36.70;5.80;;;;;;;4.20;71.53;101602.81;104784;1262;138950;-61
2024/02/02 03:22:11;;;;;;;34.60;5.70;;;;;;;4.20;71.67;101601.93;108949;1256;75451;-60
2024/02/02 03:24:38;;;;;;;34.00;7.20;;;;;;;4.21;71.63;101600.94;109000;1256;137923;-60
2024/02/02 03:27:05;;;;;;;38.10;6.80;;;;;;;4.21;71.50;101603.77;109115;1255;73120;-60
2024/02/02 03:29:31;;;;;;;30.60;6.30;;;;;;;4.21;71.54;101607.23;108938;1255;138200;-60
2024/02/02 03:31:59;;;;;;;41.60;6.50;;;;;;;4.20;71.39;101616.73;107456;1259;61255;-67
2024/02/02 03:34:26;;;;;;;29.70;6.60;;;;;;;4.20;71.44;101622.64;109081;1257;76134;-68
2024/02/02 03:36:52;;;;;;;36.10;5.90;;;;;;;4.20;71.44;101623.85;108925;1254;138435;-68
2024/02/02 03:39:20;;;;;;;26.40;5.30;;;;;;;4.22;71.39;101630.36;109178;1254;72258;-68
2024/02/02 03:41:47;;;;;;;34.70;5.70;;;;;;;4.24;71.39;101629.32;108880;1254;138849;-67
2024/02/02 03:44:13;;;;;;;31.60;5.90;;;;;;;4.26;71.40;101630.83;109198;1254;60343;-67
2024/02/02 03:46:40;;;;;;;39.00;7.40;;;;;;;4.26;71.34;101632.95;109242;1257;72981;-60
2024/02/02 03:49:07;;;;;;;35.30;6.50;;;;;;;4.27;71.35;101636.25;109121;1254;137969;-60
2024/02/02 03:51:34;;;;;;;32.20;6.00;;;;;;;4.28;71.36;101633.36;109042;1254;71496;-60
2024/02/02 03:54:00;;;;;;;28.30;6.10;;;;;;;4.28;71.37;101632.70;108879;1254;138665;-61
2024/02/02 03:56:27;;;;;;;31.60;6.00;;;;;;;4.27;71.29;101633.37;109021;1255;59450;-67
2024/02/02 03:58:54;;;;;;;36.90;6.90;;;;;;;4.26;71.22;101631.72;109232;1254;75164;-60
2024/02/02 04:01:20;;;;;;;31.80;6.50;;;;;;;4.25;71.17;101638.75;109034;1254;139061;-60
2024/02/02 04:03:47;;;;;;;25.70;6.50;;;;;;;4.23;71.19;101640.51;109020;1256;72820;-60
2024/02/02 04:06:14;;;;;;;35.00;5.80;;;;;;;4.20;71.03;101641.73;108110;1259;138710;-59
2024/02/02 04:08:40;;;;;;;32.80;6.30;;;;;;;4.20;71.20;101637.05;105044;1259;61534;-68
2024/02/02 04:11:08;;;;;;;23.60;4.90;;;;;;;4.21;71.12;101639.16;104891;1262;73726;-68
2024/02/02 04:13:36;;;;;;;28.70;6.10;;;;;;;4.19;71.12;101640.98;104918;1259;137799;-68
2024/02/02 04:16:03;;;;;;;35.60;5.70;;;;;;;4.18;71.16;101644.89;109209;1254;71760;-67
2024/02/02 04:18:30;;;;;;;32.20;5.30;;;;;;;4.16;71.17;101642.85;109105;1254;137671;-67
2024/02/02 04:20:57;;;;;;;38.30;7.10;;;;;;;4.14;71.15;101642.01;109049;1254;60972;-67
2024/02/02 04:23:24;;;;;;;39.30;7.50;;;;;;;4.12;71.02;101642.41;108910;1254;137929;-66
2024/02/02 04:25:51;;;;;;;43.50;6.10;;;;;;;4.08;71.18;101638.18;109050;1254;66254;-67
2024/02/02 04:28:18;;;;;;;39.50;6.60;;;;;;;4.05;71.05;101638.02;108990;1255;72828;-67
2024/02/02 04:30:45;;;;;;;32.40;6.20;;;;;;;4.00;71.09;101632.46;109110;1257;138526;-67
2024/02/02 04:33:11;;;;;;;32.90;6.00;;;;;;;3.96;71.09;101629.73;109117;1254;61492;-60
2024/02/02 04:35:38;;;;;;;29.50;6.40;;;;;;;3.93;71.17;101633.52;109071;1255;139540;-60
2024/02/02 04:38:05;;;;;;;28.30;6.00;;;;;;;3.92;71.20;101637.64;109078;1257;67321;-60
2024/02/02 04:40:32;;;;;;;29.30;5.90;;;;;;;3.92;71.20;101641.09;109068;1255;73309;-60
2024/02/02 04:42:59;;;;;;;41.80;7.00;;;;;;;3.93;71.27;101636.98;108895;1256;138478;-67
2024/02/02 04:45:25;;;;;;;24.00;5.70;;;;;;;3.94;71.33;101637.08;109083;1256;60748;-67
2024/02/02 04:47:52;;;;;;;48.60;7.80;;;;;;;3.94;71.24;101630.13;109004;1256;138131;-68
2024/02/02 04:50:19;;;;;;;31.00;6.00;;;;;;;3.91;71.22;101624.54;109115;1256;65134;-67
2024/02/02 04:52:45;;;;;;;35.60;5.80;;;;;;;3.86;71.10;101630.80;108987;1255;72724;-60
2024/02/02 04:55:12;;;;;;;40.20;6.60;;;;;;;3.78;71.05;101625.73;109052;1255;138439;-60
2024/02/02 04:57:39;;;;;;;30.60;6.10;;;;;;;3.70;71.17;101630.13;109130;1256;59064;-61
2024/02/02 05:00:07;;;;;;;39.80;6.90;;;;;;;3.66;71.18;101630.36;107214;1260;139192;-60
2024/02/02 05:02:38;;;;;;;30.50;6.00;;;;;;;3.64;71.28;101635.78;105776;1256;66276;-60
2024/02/02 05:05:06;;;;;;;33.40;6.00;;;;;;;3.63;71.51;101643.67;108131;1259;74635;-60
2024/02/02 05:07:34;;;;;;;29.50;5.80;;;;;;;3.63;71.55;101645.78;108848;1255;139236;-61
2024/02/02 05:10:02;;;;;;;25.90;5.60;;;;;;;3.66;71.68;101645.48;109272;1254;61411;-61
2024/02/02 05:12:29;;;;;;;37.10;7.50;;;;;;;3.69;71.59;101646.70;109092;1256;137877;-61
2024/02/02 05:14:56;;;;;;;29.60;5.90;;;;;;;3.66;71.53;101641.67;109233;1256;65120;-61
2024/02/02 05:17:22;;;;;;;27.40;6.80;;;;;;;3.62;71.33;101640.14;108137;1258;72747;-60
2024/02/02 05:19:49;;;;;;;28.70;6.90;;;;;;;3.54;71.41;101646.41;105120;1254;61277;-60
2024/02/02 05:22:16;;;;;;;31.60;5.70;;;;;;;3.44;71.31;101642.63;105259;1254;62084;-60
2024/02/02 05:24:43;;;;;;;30.40;6.00;;;;;;;3.33;71.38;101645.45;105076;1257;137690;-60
2024/02/02 05:27:12;;;;;;;39.40;5.90;;;;;;;3.21;71.37;101640.83;104949;1257;66835;-59
2024/02/02 05:29:38;;;;;;;28.80;6.40;;;;;;;3.10;71.65;101637.83;104701;1259;138776;-60
2024/02/02 05:32:05;;;;;;;37.80;6.70;;;;;;;2.99;71.63;101635.00;104766;1257;61440;-60
2024/02/02 05:34:32;;;;;;;30.20;5.40;;;;;;;2.88;71.77;101633.52;106301;1256;60406;-60
2024/02/02 05:37:00;;;;;;;35.00;5.90;;;;;;;2.79;72.02;101637.42;104912;1258;139482;-60
2024/02/02 05:39:27;;;;;;;34.80;6.50;;;;;;;2.69;72.03;101638.29;108771;1255;67283;-60
2024/02/02 05:41:55;;;;;;;35.20;6.30;;;;;;;2.61;72.08;101640.99;105022;1254;138906;-59
2024/02/02 05:44:21;;;;;;;32.70;6.60;;;;;;;2.55;72.35;101647.69;105046;1255;61352;-60
2024/02/02 05:46:48;;;;;;;40.10;6.00;;;;;;;2.52;72.58;101646.98;105068;1259;61168;-68
2024/02/02 05:49:15;;;;;;;45.90;7.20;;;;;;;2.52;72.86;101649.58;105054;1257;137673;-69
2024/02/02 05:51:42;;;;;;;31.50;6.10;;;;;;;2.52;72.84;101646.98;105043;1262;67231;-69
2024/02/02 05:54:08;;;;;;;37.60;8.00;;;;;;;2.51;73.09;101649.14;105045;1259;137936;-69
2024/02/02 05:56:35;;;;;;;39.10;7.10;;;;;;;2.47;72.91;101640.40;104891;1262;61398;-68
2024/02/02 05:59:02;;;;;;;42.30;8.20;;;;;;;2.43;73.03;101635.20;105018;1259;61360;-68
2024/02/02 06:01:28;;;;;;;41.50;8.30;;;;;;;2.38;73.21;101640.42;105032;1257;138370;-67
2024/02/02 06:03:56;;;;;;;27.80;7.80;;;;;;;2.32;73.13;101645.01;105006;1259;66905;-67
2024/02/02 06:06:23;;;;;;;32.60;7.90;;;;;;;2.27;73.16;101649.98;104924;1257;138923;-67
2024/02/02 06:08:49;;;;;;;34.40;6.90;;;;;;;2.24;73.38;101657.60;105067;1257;61359;-67
2024/02/02 06:11:16;;;;;;;24.90;6.20;;;;;;;2.29;73.83;101658.13;105195;1257;61240;-68
2024/02/02 06:13:43;;;;;;;41.20;8.60;;;;;;;2.36;74.07;101659.33;104763;1262;138206;-68
2024/02/02 06:16:10;;;;;;;38.50;8.60;;;;;;;2.41;73.99;101660.70;104999;1257;67493;-67
2024/02/02 06:18:37;;;;;;;36.70;8.20;;;;;;;2.47;74.23;101661.51;108976;1256;138355;-66
2024/02/02 06:21:03;;;;;;;45.60;9.10;;;;;;;2.57;74.39;101667.23;109228;1254;59682;-66
2024/02/02 06:23:30;;;;;;;38.60;8.80;;;;;;;2.68;74.49;101673.02;108896;1254;138023;-66
2024/02/02 06:25:57;;;;;;;39.60;8.50;;;;;;;2.80;74.57;101679.98;109047;1254;73308;-67
2024/02/02 06:28:24;;;;;;;41.60;9.70;;;;;;;2.93;74.70;101677.45;109126;1257;66862;-66
2024/02/02 06:30:50;;;;;;;50.20;13.90;;;;;;;3.06;74.67;101675.41;109102;1255;138288;-66
2024/02/02 06:33:17;;;;;;;40.10;9.40;;;;;;;3.18;74.67;101676.77;109196;1254;59805;-67
2024/02/02 06:35:44;;;;;;;32.60;9.10;;;;;;;3.30;74.59;101675.13;109068;1256;138950;-67
2024/02/02 06:38:11;;;;;;;56.80;23.40;;;;;;;3.40;74.54;101674.95;109014;1254;74422;-67
2024/02/02 06:40:38;;;;;;;60.60;19.30;;;;;;;3.50;74.64;101677.54;108923;1256;66616;-67
2024/02/02 06:43:05;;;;;;;45.10;16.70;;;;;;;3.61;74.66;101678.13;109089;1254;138637;-67
2024/02/02 06:45:32;;;;;;;102.10;46.30;;;;;;;3.74;74.64;101678.48;109016;1254;59841;-68
2024/02/02 06:47:59;;;;;;;87.70;35.00;;;;;;;3.86;74.65;101675.98;108883;1256;139476;-67
2024/02/02 06:50:26;;;;;;;60.40;21.80;;;;;;;3.96;74.63;101678.36;109047;1254;74185;-67
2024/02/02 06:52:53;;;;;;;54.30;21.40;;;;;;;4.05;74.50;101676.67;109088;1254;66375;-67
2024/02/02 06:55:19;;;;;;;60.60;22.80;;;;;;;4.14;74.66;101675.36;106068;1260;138916;-67
2024/02/02 06:57:46;;;;;;;42.00;11.00;;;;;;;4.21;74.65;101673.04;104878;1257;61428;-67
2024/02/02 07:00:16;;;;;;;45.60;14.50;;;;;;;4.29;74.80;101671.83;104938;1257;138370;-66
2024/02/02 07:02:43;;;;;;;43.90;14.10;;;;;;;4.38;74.95;101674.14;109044;1255;75636;-67
2024/02/02 07:05:13;;;;;;;54.80;20.60;;;;;;;4.45;74.99;101669.96;109061;1256;64936;-67
2024/02/02 07:07:40;;;;;;;55.30;24.90;;;;;;;4.53;75.10;101669.70;108907;1255;137876;-67
2024/02/02 07:10:12;;;;;;;47.10;18.10;;;;;;;4.60;75.25;101665.97;109024;1254;59056;-67
2024/02/02 07:12:51;;;;;;;36.90;12.70;;;;;;;4.68;75.13;101660.61;108818;1255;139340;-68
2024/02/02 07:15:19;;;;;;;26.60;9.30;;;;;;;4.76;75.21;101664.58;109144;1254;73755;-67
2024/02/02 07:17:46;;;;;;;43.70;17.30;;;;;;;4.82;75.14;101660.98;108897;1257;139369;-67
2024/02/02 07:20:22;;;;;;;38.80;16.00;;;;;;;4.90;75.17;101658.65;109031;1255;72497;-67
2024/02/02 07:22:53;;;;;;;23.60;10.60;;;;;;;4.97;75.11;101660.88;108991;1254;59935;-67
2024/02/02 07:25:21;;;;;;;28.50;10.90;;;;;;;5.05;75.15;101659.92;109152;1257;138741;-68
2024/02/02 07:28:05;;;;;;;20.90;9.20;;;;;;;5.13;75.19;101660.46;109012;1255;74755;-68
2024/02/02 07:30:51;;;;;;;16.50;8.20;;;;;;;5.22;75.04;101664.80;109096;1255;139165;-68
2024/02/02 07:33:17;;;;;;;21.20;7.40;;;;;;;5.26;74.99;101670.32;109036;1255;73800;-68
2024/02/02 07:35:44;;;;;;;16.60;5.50;;;;;;;5.31;74.92;101666.27;109050;1254;138794;-68
2024/02/02 07:38:37;;;;;;;23.20;8.50;;;;;;;5.36;74.90;101659.27;108968;1254;60452;-68
2024/02/02 07:41:04;;;;;;;33.40;15.60;;;;;;;5.46;74.95;101659.98;108975;1254;72418;-68
2024/02/02 07:43:33;;;;;;;30.00;13.00;;;;;;;5.53;74.96;101660.60;109002;1254;138278;-68
2024/02/02 07:46:00;;;;;;;22.60;10.50;;;;;;;5.57;74.79;101662.92;109195;1254;71871;-68
2024/02/02 07:48:27;;;;;;;18.50;7.60;;;;;;;5.59;74.80;101664.45;108883;1254;138149;-68
2024/02/02 07:50:54;;;;;;;23.70;10.70;;;;;;;5.60;74.75;101662.98;109052;1255;59493;-68
2024/02/02 07:53:23;;;;;;;16.90;7.70;;;;;;;5.63;74.76;101663.45;105181;1257;75820;-66
2024/02/02 07:55:52;;;;;;;17.20;8.70;;;;;;;5.64;74.83;101665.61;109101;1254;67077;-67
2024/02/02 07:58:22;;;;;;;22.50;9.90;;;;;;;5.66;74.78;101659.98;109071;1257;73078;-67
2024/02/02 08:00:49;;;;;;;28.60;17.20;;;;;;;5.69;74.82;101653.86;108844;1254;138980;-67
2024/02/02 08:03:16;;;;;;;75.80;48.70;;;;;;;5.75;74.99;101647.30;108965;1257;59766;-67
2024/02/02 08:05:43;;;;;;;33.40;22.90;;;;;;;5.83;74.92;101652.09;105500;1259;138566;-66
2024/02/02 08:08:10;;;;;;;15.80;6.60;;;;;;;5.88;74.80;101654.13;105119;1256;67206;-67
2024/02/02 08:10:44;;;;;;;31.80;19.30;;;;;;;5.88;74.67;101654.29;105140;1262;73258;-67
2024/02/02 08:13:12;;;;;;;37.60;26.30;;;;;;;5.90;74.82;101652.13;109054;1254;138335;-68
2024/02/02 08:15:39;;;;;;;48.50;30.90;;;;;;;5.93;74.76;101656.83;109055;1254;61424;-67
2024/02/02 08:18:06;;;;;;;31.40;16.60;;;;;;;5.92;74.74;101658.18;108787;1256;138252;-67
2024/02/02 08:20:34;;;;;;;20.50;7.00;;;;;;;5.93;74.69;101655.27;109234;1254;65276;-67
2024/02/02 08:23:00;;;;;;;12.40;5.70;;;;;;;5.95;74.73;101655.61;109098;1256;70550;-68
2024/02/02 08:25:27;;;;;;;19.00;5.90;;;;;;;5.96;74.55;101657.27;108915;1255;139091;-68
2024/02/02 08:27:55;;;;;;;22.80;9.40;;;;;;;5.96;74.48;101657.11;109201;1254;59243;-67
2024/02/02 08:30:23;;;;;;;21.00;9.20;;;;;;;6.03;74.64;101653.96;109079;1258;139114;-67
2024/02/02 08:32:53;;;;;;;15.80;5.50;;;;;;;6.11;74.63;101653.23;109217;1254;66819;-66
2024/02/02 08:35:21;;;;;;;20.20;7.40;;;;;;;6.16;74.53;101653.52;108894;1254;71403;-66
2024/02/02 08:37:58;;;;;;;19.50;6.80;;;;;;;6.19;74.40;101657.49;109130;1254;138609;-67
2024/02/02 08:40:42;;;;;;;23.10;5.80;;;;;;;6.22;74.38;101659.26;109205;1256;59404;-66
2024/02/02 08:43:14;;;;;;;20.40;5.80;;;;;;;6.22;74.22;101654.39;109124;1254;138169;-67
2024/02/02 08:45:41;;;;;;;20.20;5.00;;;;;;;6.24;74.21;101653.44;109235;1254;65476;-67
2024/02/02 08:48:23;;;;;;;22.70;7.00;;;;;;;6.25;74.30;101651.59;108973;1259;138252;-67
2024/02/02 08:50:50;;;;;;;19.60;6.10;;;;;;;6.27;74.32;101655.04;108973;1257;60380;-67
2024/02/02 08:53:17;;;;;;;18.00;5.50;;;;;;;6.24;74.14;101657.98;108065;1258;59980;-67
2024/02/02 08:55:45;;;;;;;16.60;5.20;;;;;;;6.20;74.11;101655.50;104969;1258;138249;-67
2024/02/02 08:58:21;;;;;;;24.70;5.30;;;;;;;6.18;74.33;101655.73;108976;1257;66648;-67
2024/02/02 09:00:49;;;;;;;17.50;5.30;;;;;;;6.17;74.37;101655.15;108837;1256;139355;-67
2024/02/02 09:03:43;;;;;;;17.90;5.40;;;;;;;6.19;74.62;101653.87;109172;1255;58974;-68
2024/02/02 09:06:34;;;;;;;14.80;4.90;;;;;;;6.27;74.74;101647.85;109008;1257;140575;-68
2024/02/02 09:09:04;;;;;;;14.30;4.10;;;;;;;6.30;74.67;101643.13;109020;1254;72957;-68
2024/02/02 09:11:31;;;;;;;16.70;3.90;;;;;;;6.30;74.70;101643.33;108894;1256;138129;-67
2024/02/02 09:14:04;;;;;;;19.90;4.10;;;;;;;6.34;74.78;101646.50;109168;1258;73666;-68
2024/02/02 09:16:38;;;;;;;14.20;4.10;;;;;;;6.37;74.79;101642.88;109215;1254;59214;-67
2024/02/02 09:19:04;;;;;;;10.80;3.50;;;;;;;6.40;74.81;101634.67;108912;1254;138087;-67
2024/02/02 09:21:32;;;;;;;14.60;4.20;;;;;;;6.48;74.84;101638.91;108336;1258;73896;-67
2024/02/02 09:23:59;;;;;;;14.00;4.10;;;;;;;6.57;74.98;101636.32;108762;1254;195652;-67
2024/02/02 09:26:39;;;;;;;14.60;2.90;;;;;;;6.71;74.93;101634.77;109198;1254;73309;-67
2024/02/02 09:29:05;;;;;;;13.00;3.00;;;;;;;6.82;74.73;101637.14;108995;1260;60633;-67
2024/02/02 09:31:35;;;;;;;11.00;3.10;;;;;;;6.89;74.66;101633.12;108821;1256;138420;-68
2024/02/02 09:34:06;;;;;;;9.20;2.50;;;;;;;6.94;74.45;101632.02;109087;1255;73972;-67
2024/02/02 09:36:33;;;;;;;8.00;3.40;;;;;;;7.00;74.31;101633.36;108980;1256;138443;-68
2024/02/02 09:39:35;;;;;;;11.70;5.10;;;;;;;7.06;74.30;101630.75;108862;1261;71586;-67
2024/02/02 09:42:06;;;;;;;13.10;5.00;;;;;;;7.09;74.09;101630.04;108789;1256;139852;-67
2024/02/02 09:44:50;;;;;;;10.40;3.30;;;;;;;7.12;73.96;101629.48;109018;1257;60454;-67
2024/02/02 09:47:45;;;;;;;8.30;3.40;;;;;;;7.13;73.89;101627.13;109066;1256;73260;-67
2024/02/02 09:50:14;;;;;;;8.30;2.40;;;;;;;7.16;73.84;101626.70;109087;1257;66354;-67
2024/02/02 09:53:12;;;;;;;7.10;3.00;;;;;;;7.19;73.78;101627.75;109098;1257;71879;-67
2024/02/02 09:56:01;;;;;;;9.70;2.70;;;;;;;7.24;73.65;101622.95;108531;1263;138577;-67
2024/02/02 09:58:34;;;;;;;8.50;2.60;;;;;;;7.29;73.64;101621.81;108577;1263;60086;-68
2024/02/02 10:01:25;;;;;;;10.80;3.10;;;;;;;7.29;73.36;101616.40;108524;1261;138587;-67
2024/02/02 10:04:20;;;;;;;9.60;2.90;;;;;;;7.31;73.40;101615.66;108532;1262;64612;-67
2024/02/02 10:06:46;;;;;;;;;;;;;;;7.35;73.42;101614.27;108150;1268;137956;-67
2024/02/02 10:09:22;;;;;;;11.80;3.50;;;;;;;7.40;73.39;101615.75;108254;1268;59096;-67
2024/02/02 10:11:56;;;;;;;16.90;3.70;;;;;;;7.42;73.30;101616.55;108066;1268;138506;-66
2024/02/02 10:14:59;;;;;;;8.80;3.90;;;;;;;7.42;73.33;101621.79;108238;1268;73368;-67
2024/02/02 10:17:33;;;;;;;13.00;5.10;;;;;;;7.45;73.27;101620.57;108311;1268;65351;-67
2024/02/02 10:20:17;;;;;;;9.50;3.40;;;;;;;7.54;73.32;101623.11;108183;1268;137656;-67
2024/02/02 10:22:55;;;;;;;14.40;4.20;;;;;;;7.58;73.04;101625.58;105155;1274;60110;-66
2024/02/02 10:25:47;;;;;;;9.90;3.50;;;;;;;7.54;72.84;101619.96;104030;1273;139243;-67
2024/02/02 10:28:21;;;;;;;19.00;5.30;;;;;;;7.55;72.96;101616.02;108212;1268;74859;-67
2024/02/02 10:30:56;;;;;;;22.10;9.70;;;;;;;7.56;72.75;101614.14;108161;1267;138730;-68
2024/02/02 10:33:45;;;;;;;21.50;5.80;;;;;;;7.55;72.80;101609.91;108437;1260;74245;-68
2024/02/02 10:36:35;;;;;;;18.00;4.70;;;;;;;7.60;72.80;101598.98;108564;1260;138398;-68
2024/02/02 10:39:18;;;;;;;17.40;4.60;;;;;;;7.65;72.76;101595.55;108743;1260;61274;-68
2024/02/02 10:42:12;;;;;;;14.90;4.70;;;;;;;7.67;72.59;101587.06;108623;1261;139249;-67
2024/02/02 10:44:57;;;;;;;17.20;4.60;;;;;;;7.69;72.62;101581.42;108933;1257;66093;-68
2024/02/02 10:47:52;;;;;;;19.70;4.80;;;;;;;7.70;72.46;101576.20;107458;1259;72558;-67
2024/02/02 10:50:32;;;;;;;14.30;4.40;;;;;;;7.70;72.40;101573.63;109080;1257;58903;-67
2024/02/02 10:53:03;;;;;;;18.90;4.40;;;;;;;7.68;72.36;101567.02;109025;1258;59962;-67
2024/02/02 10:55:40;;;;;;;12.80;5.10;;;;;;;7.69;72.32;101563.08;108863;1257;138273;-67
2024/02/02 10:58:33;;;;;;;11.40;4.40;;;;;;;7.71;72.33;101558.61;108865;1258;67289;-68
2024/02/02 11:01:06;;;;;;;16.50;4.00;;;;;;;7.73;72.31;101561.17;108857;1256;137943;-68
2024/02/02 11:03:36;;;;;;;15.40;4.60;;;;;;;7.77;72.37;101556.14;109095;1257;60535;-68
2024/02/02 11:06:11;;;;;;;17.20;5.60;;;;;;;7.75;72.04;101559.01;108909;1257;139457;-67
2024/02/02 11:08:43;;;;;;;18.90;6.30;;;;;;;7.70;71.91;101548.44;108846;1257;74412;-68
2024/02/02 11:11:17;;;;;;;19.90;4.90;;;;;;;7.67;71.89;101542.38;105876;1259;66277;-68
2024/02/02 11:14:00;;;;;;;16.40;4.70;;;;;;;7.68;71.95;101533.16;104843;1262;138860;-67
2024/02/02 11:16:51;;;;;;;21.70;5.80;;;;;;;7.69;71.92;101530.40;109113;1257;59333;-68
2024/02/02 11:19:24;;;;;;;16.40;5.60;;;;;;;7.67;71.79;101517.69;108737;1258;138680;-67
2024/02/02 11:22:09;;;;;;;14.00;5.10;;;;;;;7.63;71.74;101518.54;109054;1259;75680;-68
2024/02/02 11:25:06;;;;;;;19.60;4.90;;;;;;;7.58;71.69;101510.65;108803;1258;138532;-68
2024/02/02 11:27:45;;;;;;;16.90;4.80;;;;;;;7.61;71.76;101505.35;108885;1257;72646;-61